Terminal Aerodrome Forecast
Issued by NWS

Home | Current Version | Previous Version | Text Only | Print | Product List | Glossary Off
Versions: 1 2 3 4 5 6 7 8 9 10 11 12 13 14 15 16

261
FTUS43 KICT 231124
TAFHUT
TAF
KHUT 231124Z 2312/2412 33012KT P6SM SCT080
     FM231500 32014G20KT P6SM FEW030 SCT090
     FM231800 32016G23KT P6SM VCSH SCT040 BKN100
      TEMPO 2319/2323 BKN040
     FM240100 33009KT P6SM BKN070=

USA.gov is the U.S. government's official web portal to all federal, state and local government web resources and services.